57°F Temp
39°F Dewpoint
51% Humidity
Temperature
5 MPH
8 KM/H
4 KTS
150°
South South
East

Wind Speed
Clear
Conditions
Pressure 1011.82 (hPa) - 29.88 (in)
Visibility 10.0 (mi) - 16.1 (km)

Current Conditions
KCPS
Location 10(mi)
Metar :KCPS 182353Z 15004KT 10SM CLR 14/04 A2988 RMK AO2 SLP119 T01390044 10200 20139 56011
Fri 18th October 18:53 pm

Airport
  Metar Aviation API Data Provided by https://www.checkwx.com/ PHP scripts by weather34.com ©2019